createdAt,value
2018-01-03T00:00:02.342Z,3.39
2018-01-03T00:01:02.337Z,3.42
2018-01-03T00:02:02.332Z,3.44
2018-01-03T00:03:02.328Z,3.42
2018-01-03T00:04:02.321Z,3.40
2018-01-03T00:05:02.312Z,3.40
2018-01-03T00:06:02.299Z,3.34
2018-01-03T00:07:02.307Z,3.30
2018-01-03T00:08:02.295Z,3.27
2018-01-03T00:09:02.294Z,3.23
2018-01-03T00:10:02.289Z,3.23
2018-01-03T00:11:02.284Z,3.18
2018-01-03T00:12:02.262Z,3.18
2018-01-03T00:13:02.269Z,3.18
2018-01-03T00:14:02.262Z,3.16
2018-01-03T00:15:02.261Z,3.21
2018-01-03T00:16:02.242Z,3.16
2018-01-03T00:17:02.244Z,3.21
2018-01-03T00:18:02.239Z,3.18
2018-01-03T00:19:02.232Z,3.06
2018-01-03T00:20:02.229Z,3.09
2018-01-03T00:21:02.209Z,3.07
2018-01-03T00:22:02.210Z,3.13
2018-01-03T00:23:02.198Z,3.12
2018-01-03T00:24:02.209Z,3.12
2018-01-03T00:25:02.199Z,3.05
2018-01-03T00:26:02.182Z,3.10
2018-01-03T00:27:02.186Z,3.05
2018-01-03T00:28:02.180Z,3.07
2018-01-03T00:29:02.175Z,3.09
2018-01-03T00:30:02.171Z,3.07
2018-01-03T00:31:02.164Z,3.09
2018-01-03T00:32:02.159Z,3.07
2018-01-03T00:33:02.144Z,3.06
2018-01-03T00:34:02.140Z,3.02
2018-01-03T00:35:02.139Z,3.07
2018-01-03T00:36:02.135Z,3.07
2018-01-03T00:37:02.129Z,3.06
2018-01-03T00:38:02.114Z,3.05
2018-01-03T00:39:02.108Z,3.02
2018-01-03T00:40:02.166Z,3.06
2018-01-03T00:41:02.094Z,3.09
2018-01-03T00:42:02.089Z,3.07
2018-01-03T00:43:02.083Z,3.06
2018-01-03T00:44:02.099Z,3.07
2018-01-03T00:45:02.081Z,3.07
2018-01-03T00:46:02.067Z,3.07
2018-01-03T00:47:02.060Z,3.10
2018-01-03T00:48:02.053Z,3.10
2018-01-03T00:49:02.060Z,3.02
2018-01-03T00:50:02.057Z,3.05
2018-01-03T00:51:02.056Z,3.12
2018-01-03T00:52:02.047Z,3.07
2018-01-03T00:53:02.048Z,3.09
2018-01-03T00:54:02.026Z,3.07
2018-01-03T00:55:02.012Z,3.12
2018-01-03T00:56:02.011Z,3.10
2018-01-03T00:57:02.002Z,3.20
2018-01-03T00:58:01.995Z,3.23
2018-01-03T00:59:01.991Z,3.15
2018-01-03T01:00:01.984Z,3.20
2018-01-03T01:01:01.983Z,3.21
2018-01-03T01:02:01.972Z,3.16
2018-01-03T01:03:01.964Z,3.16
2018-01-03T01:04:01.960Z,3.07
2018-01-03T01:05:01.953Z,3.09
2018-01-03T01:06:01.947Z,3.06
2018-01-03T01:07:01.940Z,3.03
2018-01-03T01:08:01.937Z,3.06
2018-01-03T01:09:01.938Z,3.05
2018-01-03T01:10:01.926Z,3.07
2018-01-03T01:11:01.919Z,3.12
2018-01-03T01:12:01.913Z,3.07
2018-01-03T01:13:01.906Z,3.10
2018-01-03T01:14:01.906Z,3.06
2018-01-03T01:15:01.897Z,3.16
2018-01-03T01:16:01.893Z,3.23
2018-01-03T01:17:01.886Z,3.16
2018-01-03T01:18:01.879Z,3.09
2018-01-03T01:19:01.876Z,3.06
2018-01-03T01:20:01.865Z,3.09
2018-01-03T01:21:01.864Z,3.10
2018-01-03T01:22:01.857Z,3.06
2018-01-03T01:23:01.846Z,3.03
2018-01-03T01:24:01.845Z,3.07
2018-01-03T01:25:01.860Z,3.02
2018-01-03T01:26:01.833Z,2.98
2018-01-03T01:27:01.835Z,2.91
2018-01-03T01:28:01.819Z,3.07
2018-01-03T01:29:01.823Z,3.00
2018-01-03T01:30:01.808Z,3.03
2018-01-03T01:31:01.800Z,3.06
2018-01-03T01:32:01.800Z,3.02
2018-01-03T01:33:01.795Z,3.02
2018-01-03T01:34:01.788Z,3.06
2018-01-03T01:35:01.779Z,3.02
2018-01-03T01:36:01.772Z,3.09
2018-01-03T01:37:01.769Z,3.10
2018-01-03T01:38:01.762Z,3.06
2018-01-03T01:39:01.784Z,3.12
2018-01-03T01:40:01.749Z,3.12
2018-01-03T01:41:01.747Z,3.09
2018-01-03T01:42:01.738Z,3.18
2018-01-03T01:43:01.736Z,3.03
2018-01-03T01:44:01.726Z,3.09
2018-01-03T01:45:01.726Z,3.05
2018-01-03T01:46:01.716Z,3.10
2018-01-03T01:47:01.720Z,3.09
2018-01-03T01:48:01.705Z,3.07
2018-01-03T01:49:01.698Z,3.06
2018-01-03T01:50:01.700Z,3.03
2018-01-03T01:51:01.685Z,3.06
2018-01-03T01:52:01.681Z,3.09
2018-01-03T01:53:01.696Z,3.06
2018-01-03T01:54:01.673Z,3.07
2018-01-03T01:55:01.701Z,3.05
2018-01-03T01:56:01.691Z,3.03
2018-01-03T01:57:01.653Z,3.06
2018-01-03T01:58:01.647Z,3.05
2018-01-03T01:59:01.638Z,3.10
2018-01-03T02:00:01.635Z,3.05
2018-01-03T02:01:01.636Z,3.10
2018-01-03T02:02:01.624Z,3.06
2018-01-03T02:03:01.616Z,3.05
2018-01-03T02:04:01.614Z,3.02
2018-01-03T02:05:01.606Z,2.89
2018-01-03T02:06:01.600Z,2.87
2018-01-03T02:07:01.604Z,2.97
2018-01-03T02:08:01.589Z,2.92
2018-01-03T02:09:01.580Z,2.98
2018-01-03T02:10:01.575Z,2.85
2018-01-03T02:11:01.573Z,2.84
2018-01-03T02:12:01.570Z,2.89
2018-01-03T02:13:01.558Z,2.82
2018-01-03T02:14:01.554Z,2.89
2018-01-03T02:15:04.407Z,2.88
2018-01-03T02:16:01.544Z,2.94
2018-01-03T02:17:01.587Z,2.98
2018-01-03T02:18:01.529Z,2.89
2018-01-03T02:19:01.528Z,2.97
2018-01-03T02:20:01.525Z,2.82
2018-01-03T02:21:01.515Z,2.91
2018-01-03T02:22:01.505Z,2.87
2018-01-03T02:23:01.500Z,2.84
2018-01-03T02:24:01.511Z,2.73
2018-01-03T02:25:01.488Z,2.76
2018-01-03T02:26:01.484Z,2.81
2018-01-03T02:27:01.478Z,2.71
2018-01-03T02:28:01.471Z,2.76
2018-01-03T02:29:01.482Z,2.79
2018-01-03T02:30:01.463Z,2.73
2018-01-03T02:31:01.456Z,2.79
2018-01-03T02:32:01.450Z,2.81
2018-01-03T02:33:01.444Z,2.76
2018-01-03T02:34:01.437Z,2.69
2018-01-03T02:35:01.428Z,2.73
2018-01-03T02:36:01.422Z,2.70
2018-01-03T02:37:01.437Z,2.74
2018-01-03T02:38:01.420Z,2.70
2018-01-03T02:39:01.404Z,2.67
2018-01-03T02:40:01.403Z,2.71
2018-01-03T02:41:01.398Z,2.69
2018-01-03T02:42:01.389Z,2.69
2018-01-03T02:43:01.381Z,2.71
2018-01-03T02:44:01.374Z,2.74
2018-01-03T02:45:01.382Z,2.81
2018-01-03T02:46:01.365Z,2.76
2018-01-03T02:47:01.358Z,2.81
2018-01-03T02:48:01.350Z,2.84
2018-01-03T02:49:01.357Z,2.88
2018-01-03T02:50:01.342Z,2.87
2018-01-03T02:51:01.341Z,2.85
2018-01-03T02:52:01.337Z,2.88
2018-01-03T02:53:01.332Z,2.88
2018-01-03T02:54:01.314Z,2.79
2018-01-03T02:55:01.309Z,2.88
2018-01-03T02:56:01.304Z,2.87
2018-01-03T02:57:01.297Z,2.97
2018-01-03T02:58:01.314Z,2.92
2018-01-03T02:59:01.291Z,2.89
2018-01-03T03:00:01.280Z,2.91
2018-01-03T03:01:01.280Z,2.92
2018-01-03T03:02:01.284Z,3.05
2018-01-03T03:03:01.270Z,2.94
2018-01-03T03:04:01.278Z,2.95
2018-01-03T03:05:01.261Z,2.95
2018-01-03T03:06:01.244Z,2.89
2018-01-03T03:07:01.239Z,2.94
2018-01-03T03:08:01.249Z,2.92
2018-01-03T03:09:01.228Z,2.94
2018-01-03T03:10:01.220Z,2.98
2018-01-03T03:11:01.223Z,3.00
2018-01-03T03:12:01.210Z,3.03
2018-01-03T03:13:01.206Z,3.06
2018-01-03T03:14:01.199Z,3.05
2018-01-03T03:15:01.195Z,3.09
2018-01-03T03:16:01.183Z,3.05
2018-01-03T03:17:01.181Z,3.07
2018-01-03T03:18:01.173Z,3.20
2018-01-03T03:19:01.167Z,3.09
2018-01-03T03:20:01.160Z,3.03
2018-01-03T03:21:01.158Z,3.09
2018-01-03T03:22:01.160Z,3.12
2018-01-03T03:23:01.152Z,3.07
2018-01-03T03:24:01.147Z,3.18
2018-01-03T03:25:01.143Z,3.25
2018-01-03T03:26:01.131Z,3.18
2018-01-03T03:27:01.120Z,3.24
2018-01-03T03:28:01.115Z,3.25
2018-01-03T03:29:01.112Z,3.27
2018-01-03T03:30:01.109Z,3.31
2018-01-03T03:31:01.101Z,3.33
2018-01-03T03:32:01.094Z,3.36
2018-01-03T03:33:01.090Z,3.49
2018-01-03T03:34:01.079Z,3.34
2018-01-03T03:35:01.074Z,3.46
2018-01-03T03:36:01.070Z,3.49
2018-01-03T03:37:01.064Z,3.52
2018-01-03T03:38:01.074Z,3.62
2018-01-03T03:39:01.055Z,3.62
2018-01-03T03:40:01.044Z,3.57
2018-01-03T03:41:01.043Z,3.57
2018-01-03T03:42:01.036Z,3.60
2018-01-03T03:43:01.028Z,3.53
2018-01-03T03:44:01.025Z,3.57
2018-01-03T03:45:01.016Z,3.67
2018-01-03T03:46:01.041Z,3.61
2018-01-03T03:47:01.012Z,3.58
2018-01-03T03:48:01.008Z,3.65
2018-01-03T03:49:01.004Z,3.64
2018-01-03T03:50:01.016Z,3.61
2018-01-03T03:51:01.005Z,3.76
2018-01-03T03:52:00.978Z,3.83
2018-01-03T03:53:01.013Z,3.78
2018-01-03T03:54:00.994Z,3.79
2018-01-03T03:55:00.968Z,3.85
2018-01-03T03:56:00.985Z,3.80
2018-01-03T03:57:00.950Z,3.89
2018-01-03T03:58:00.966Z,3.85
2018-01-03T03:59:00.940Z,3.78
2018-01-03T04:00:00.964Z,3.78
2018-01-03T04:01:00.931Z,3.75
2018-01-03T04:02:00.922Z,3.70
2018-01-03T04:03:00.922Z,3.76
2018-01-03T04:04:00.927Z,3.71
2018-01-03T04:05:00.914Z,3.80
2018-01-03T04:06:00.931Z,3.79
2018-01-03T04:07:00.907Z,3.85
2018-01-03T04:08:00.893Z,3.92
2018-01-03T04:09:00.899Z,3.83
2018-01-03T04:10:00.891Z,3.80
2018-01-03T04:11:00.901Z,3.92
2018-01-03T04:12:00.870Z,3.90
2018-01-03T04:13:00.898Z,3.83
2018-01-03T04:14:00.899Z,3.85
2018-01-03T04:15:00.851Z,3.86
2018-01-03T04:16:00.852Z,3.85
2018-01-03T04:17:00.839Z,3.85
2018-01-03T04:18:00.847Z,3.85
2018-01-03T04:19:00.831Z,3.96
2018-01-03T04:20:00.823Z,3.94
2018-01-03T04:21:00.887Z,3.96
2018-01-03T04:22:00.812Z,4.04
2018-01-03T04:23:00.808Z,3.94
2018-01-03T04:24:00.805Z,4.14
2018-01-03T04:25:00.801Z,4.12
2018-01-03T04:26:00.802Z,4.14
2018-01-03T04:27:00.843Z,4.21
2018-01-03T04:28:00.807Z,4.12
2018-01-03T04:29:00.783Z,4.15
2018-01-03T04:30:00.792Z,4.16
2018-01-03T04:31:00.816Z,4.18
2018-01-03T04:32:00.769Z,4.25
2018-01-03T04:33:00.756Z,4.39
2018-01-03T04:34:00.754Z,4.57
2018-01-03T04:35:00.741Z,4.54
2018-01-03T04:36:00.741Z,4.69
2018-01-03T04:37:00.766Z,4.64
2018-01-03T04:38:00.771Z,4.55
2018-01-03T04:39:00.726Z,4.54
2018-01-03T04:40:00.749Z,4.46
2018-01-03T04:41:00.715Z,4.36
2018-01-03T04:42:00.706Z,4.33
2018-01-03T04:43:00.705Z,4.29
2018-01-03T04:44:00.710Z,4.39
2018-01-03T04:45:00.689Z,4.37
2018-01-03T04:46:00.689Z,4.33
2018-01-03T04:47:00.684Z,4.37
2018-01-03T04:48:00.676Z,4.43
2018-01-03T04:49:00.674Z,4.50
2018-01-03T04:50:00.670Z,4.46
2018-01-03T04:51:00.660Z,4.52
2018-01-03T04:52:00.655Z,4.46
2018-01-03T04:53:00.652Z,4.58
2018-01-03T04:54:00.645Z,4.44
2018-01-03T04:55:00.655Z,4.40
2018-01-03T04:56:00.647Z,4.46
2018-01-03T04:57:00.631Z,4.47
2018-01-03T04:58:00.625Z,4.44
2018-01-03T04:59:00.621Z,4.42
2018-01-03T05:00:00.616Z,4.40
2018-01-03T05:01:00.619Z,4.40
2018-01-03T05:02:00.609Z,4.32
2018-01-03T05:03:00.597Z,4.39
2018-01-03T05:04:00.595Z,4.39
2018-01-03T05:05:01.482Z,4.50
2018-01-03T05:06:00.614Z,4.47
2018-01-03T05:07:00.579Z,4.46
2018-01-03T05:08:00.577Z,4.46
2018-01-03T05:09:00.569Z,4.55
2018-01-03T05:10:00.564Z,4.64
2018-01-03T05:11:00.557Z,4.46
2018-01-03T05:12:00.573Z,4.61
2018-01-03T05:13:00.548Z,4.80
2018-01-03T05:14:00.592Z,4.75
2018-01-03T05:15:00.540Z,4.79
2018-01-03T05:16:00.534Z,4.69
2018-01-03T05:17:00.531Z,4.83
2018-01-03T05:18:00.522Z,4.76
2018-01-03T05:19:00.583Z,4.83
2018-01-03T05:20:00.565Z,4.75
2018-01-03T05:21:00.542Z,4.91
2018-01-03T05:22:00.505Z,4.92
2018-01-03T05:23:00.560Z,4.91
2018-01-03T05:24:00.515Z,4.92
2018-01-03T05:25:00.514Z,4.84
2018-01-03T05:26:00.503Z,4.91
2018-01-03T05:27:00.483Z,4.96
2018-01-03T05:28:00.473Z,4.95
2018-01-03T05:29:00.473Z,4.96
2018-01-03T05:30:00.473Z,4.99
2018-01-03T05:31:00.510Z,5.07
2018-01-03T05:32:00.452Z,4.98
2018-01-03T05:33:00.449Z,5.02
2018-01-03T05:34:00.447Z,5.09
2018-01-03T05:35:00.439Z,5.13
2018-01-03T05:36:00.473Z,5.14
2018-01-03T05:37:00.433Z,5.12
2018-01-03T05:38:00.462Z,5.10
2018-01-03T05:39:00.456Z,5.12
2018-01-03T05:40:00.417Z,5.13
2018-01-03T05:41:00.415Z,5.12
2018-01-03T05:42:00.427Z,5.14
2018-01-03T05:43:00.461Z,5.14
2018-01-03T05:44:00.440Z,5.04
2018-01-03T05:45:00.406Z,5.12
2018-01-03T05:46:00.459Z,5.09
2018-01-03T05:47:00.421Z,5.12
2018-01-03T05:48:00.430Z,5.02
2018-01-03T05:49:00.435Z,5.09
2018-01-03T05:50:00.459Z,5.04
2018-01-03T05:51:00.471Z,4.98
2018-01-03T05:52:00.358Z,5.05
2018-01-03T05:53:00.363Z,5.07
2018-01-03T05:54:00.361Z,5.04
2018-01-03T05:55:00.379Z,5.07
2018-01-03T05:56:00.362Z,5.10
2018-01-03T05:57:00.405Z,5.12
2018-01-03T05:58:00.376Z,5.17
2018-01-03T05:59:00.409Z,5.22
2018-01-03T06:00:00.418Z,5.14
2018-01-03T06:01:00.356Z,5.16
2018-01-03T06:02:00.396Z,5.09
2018-01-03T06:03:00.446Z,5.09
2018-01-03T06:04:00.390Z,5.22
2018-01-03T06:05:00.365Z,5.10
2018-01-03T06:06:00.357Z,5.05
2018-01-03T06:07:00.423Z,5.05
2018-01-03T06:08:00.355Z,5.02
2018-01-03T06:09:00.931Z,5.12
2018-01-03T06:10:00.350Z,5.19
2018-01-03T06:11:00.360Z,5.22
2018-01-03T06:12:00.361Z,5.14
2018-01-03T06:13:00.369Z,5.12
2018-01-03T06:14:00.377Z,5.30
2018-01-03T06:15:00.388Z,5.30
2018-01-03T06:16:00.366Z,5.31
2018-01-03T06:17:00.403Z,5.23
2018-01-03T06:18:00.317Z,5.28
2018-01-03T06:19:00.318Z,5.25
2018-01-03T06:20:00.315Z,5.17
2018-01-03T06:21:00.324Z,5.14
2018-01-03T06:22:00.249Z,5.19
2018-01-03T06:23:00.346Z,5.14
2018-01-03T06:24:00.215Z,5.22
2018-01-03T06:25:00.429Z,5.34
2018-01-03T06:26:00.356Z,5.35
2018-01-03T06:27:00.339Z,5.30
2018-01-03T06:28:00.350Z,5.41
2018-01-03T06:29:00.373Z,5.43
2018-01-03T06:30:00.299Z,5.43
2018-01-03T06:31:00.310Z,5.46
2018-01-03T06:32:00.296Z,5.50
2018-01-03T06:33:00.282Z,5.50
2018-01-03T06:34:00.313Z,5.52
2018-01-03T06:35:00.305Z,5.57
2018-01-03T06:36:00.316Z,5.60
2018-01-03T06:37:00.315Z,5.59
2018-01-03T06:38:00.313Z,5.63
2018-01-03T06:39:00.331Z,5.66
2018-01-03T06:40:00.333Z,5.60
2018-01-03T06:41:00.286Z,5.60
2018-01-03T06:42:00.418Z,5.68
2018-01-03T06:43:00.238Z,5.73
2018-01-03T06:44:00.281Z,5.68
2018-01-03T06:45:00.134Z,5.73
2018-01-03T06:46:00.291Z,5.74
2018-01-03T06:47:00.281Z,5.81
2018-01-03T06:48:00.299Z,5.82
2018-01-03T06:49:00.297Z,5.88
2018-01-03T06:50:00.298Z,5.86
2018-01-03T06:51:00.304Z,5.89
2018-01-03T06:52:00.321Z,5.85
2018-01-03T06:53:00.341Z,5.89
2018-01-03T06:54:00.327Z,6.01
2018-01-03T06:55:00.230Z,6.07
2018-01-03T06:56:00.233Z,6.30
2018-01-03T06:57:00.141Z,6.38
2018-01-03T06:58:00.138Z,6.41
2018-01-03T06:59:00.253Z,6.50
2018-01-03T07:00:00.266Z,6.51
2018-01-03T07:01:00.269Z,6.50
2018-01-03T07:02:00.216Z,6.30
2018-01-03T07:03:00.199Z,6.32
2018-01-03T07:04:00.150Z,6.38
2018-01-03T07:05:00.090Z,6.40
2018-01-03T07:06:00.039Z,6.26
2018-01-03T07:07:00.110Z,6.38
2018-01-03T07:08:00.112Z,6.36
2018-01-03T07:09:00.034Z,6.35
2018-01-03T07:10:00.025Z,6.29
2018-01-03T07:11:00.246Z,6.30
2018-01-03T07:12:00.260Z,6.28
2018-01-03T07:13:00.253Z,6.32
2018-01-03T07:14:00.261Z,6.22
2018-01-03T07:15:00.095Z,6.40
2018-01-03T07:16:00.070Z,6.43
2018-01-03T07:17:00.070Z,6.48
2018-01-03T07:18:00.080Z,6.56
2018-01-03T07:18:59.981Z,6.53
2018-01-03T07:19:59.978Z,6.50
2018-01-03T07:20:59.977Z,6.53
2018-01-03T07:21:59.987Z,6.48
2018-01-03T07:22:59.964Z,6.50
2018-01-03T07:24:00.109Z,6.44
2018-01-03T07:25:00.042Z,6.50
2018-01-03T07:26:00.001Z,6.47
2018-01-03T07:27:00.037Z,6.47
2018-01-03T07:27:59.946Z,6.50
2018-01-03T07:28:59.943Z,6.47
2018-01-03T07:29:59.942Z,6.47
2018-01-03T07:30:59.933Z,6.50
2018-01-03T07:31:59.935Z,6.50
2018-01-03T07:32:59.928Z,6.47
2018-01-03T07:34:00.359Z,6.61
2018-01-03T07:35:00.165Z,6.59
2018-01-03T07:36:00.386Z,6.65
2018-01-03T07:37:00.087Z,6.61
2018-01-03T07:37:59.910Z,6.54
2018-01-03T07:38:59.905Z,6.48
2018-01-03T07:39:59.929Z,6.48
2018-01-03T07:40:59.896Z,6.51
2018-01-03T07:41:59.896Z,6.47
2018-01-03T07:42:59.893Z,6.59
2018-01-03T07:44:00.439Z,6.50
2018-01-03T07:44:59.908Z,6.50
2018-01-03T07:45:59.886Z,6.54
2018-01-03T07:46:59.891Z,6.47
2018-01-03T07:47:59.880Z,6.46
2018-01-03T07:48:59.874Z,6.51
2018-01-03T07:49:59.887Z,6.48
2018-01-03T07:50:59.868Z,6.59
2018-01-03T07:51:59.860Z,6.71
2018-01-03T07:52:59.854Z,6.65
2018-01-03T07:53:59.856Z,6.65
2018-01-03T07:54:59.845Z,6.58
2018-01-03T07:55:59.871Z,6.58
2018-01-03T07:56:59.863Z,6.50
2018-01-03T07:57:59.911Z,6.51
2018-01-03T07:58:59.849Z,6.58
2018-01-03T07:59:59.842Z,6.50
2018-01-03T08:00:59.908Z,6.56
2018-01-03T08:01:59.821Z,6.48
2018-01-03T08:02:59.822Z,6.43
2018-01-03T08:03:59.819Z,6.44
2018-01-03T08:04:59.971Z,6.41
2018-01-03T08:05:59.820Z,6.36
2018-01-03T08:06:59.803Z,6.41
2018-01-03T08:07:59.827Z,6.29
2018-01-03T08:08:59.802Z,6.35
2018-01-03T08:09:59.794Z,6.32
2018-01-03T08:10:59.820Z,6.13
2018-01-03T08:11:59.827Z,6.29
2018-01-03T08:12:59.783Z,6.18
2018-01-03T08:13:59.782Z,6.19
2018-01-03T08:14:59.775Z,6.29
2018-01-03T08:15:59.806Z,6.33
2018-01-03T08:16:59.774Z,6.40
2018-01-03T08:17:59.796Z,6.28
2018-01-03T08:18:59.770Z,6.36
2018-01-03T08:19:59.757Z,6.32
2018-01-03T08:20:59.753Z,6.30
2018-01-03T08:21:59.757Z,6.29
2018-01-03T08:22:59.763Z,6.26
2018-01-03T08:23:59.769Z,6.25
2018-01-03T08:24:59.743Z,6.19
2018-01-03T08:25:59.735Z,6.16
2018-01-03T08:26:59.732Z,6.19
2018-01-03T08:27:59.816Z,6.22
2018-01-03T08:28:59.731Z,6.18
2018-01-03T08:29:59.721Z,6.40
2018-01-03T08:30:59.749Z,6.33
2018-01-03T08:31:59.713Z,6.28
2018-01-03T08:32:59.713Z,6.40
2018-01-03T08:33:59.785Z,6.38
2018-01-03T08:34:59.715Z,6.30
2018-01-03T08:35:59.701Z,6.35
2018-01-03T08:37:02.684Z,6.40
2018-01-03T08:38:02.603Z,6.38
2018-01-03T08:39:56.697Z,6.29
2018-01-03T08:40:56.764Z,6.36
2018-01-03T08:42:51.341Z,6.36
2018-01-03T08:43:51.101Z,6.29
2018-01-03T08:45:45.351Z,6.30
2018-01-03T08:46:45.335Z,6.35
2018-01-03T08:48:39.753Z,6.19
2018-01-03T08:49:39.720Z,6.16
2018-01-03T08:51:34.362Z,6.33
2018-01-03T08:52:34.468Z,6.29
2018-01-03T08:54:28.801Z,6.32
2018-01-03T08:55:28.856Z,6.32
2018-01-03T08:57:22.912Z,6.32
2018-01-03T08:58:22.792Z,6.40
2018-01-03T09:00:17.188Z,6.44
2018-01-03T09:01:17.266Z,6.47
2018-01-03T09:03:11.773Z,6.43
2018-01-03T09:04:11.860Z,6.62
2018-01-03T09:06:06.247Z,6.62
2018-01-03T09:07:06.245Z,6.54
2018-01-03T09:09:00.555Z,6.59
2018-01-03T09:10:00.212Z,6.61
2018-01-03T09:11:54.907Z,6.66
2018-01-03T09:12:54.975Z,6.56
2018-01-03T09:14:50.311Z,6.56
2018-01-03T09:15:51.393Z,6.61
2018-01-03T09:17:44.566Z,6.83
2018-01-03T09:18:44.502Z,6.90
2018-01-03T09:19:44.293Z,6.80
2018-01-03T09:20:44.537Z,6.84
2018-01-03T09:21:46.865Z,6.87
2018-01-03T09:22:44.239Z,6.73
2018-01-03T09:23:44.252Z,6.77
2018-01-03T09:24:44.229Z,6.68
2018-01-03T09:25:44.227Z,6.79
2018-01-03T09:26:44.252Z,6.76
2018-01-03T09:27:44.242Z,6.68
2018-01-03T09:28:44.216Z,6.72
2018-01-03T09:29:44.215Z,6.65
2018-01-03T09:30:44.228Z,6.76
2018-01-03T09:31:44.211Z,6.69
2018-01-03T09:32:44.308Z,6.71
2018-01-03T09:33:44.223Z,6.63
2018-01-03T09:34:45.847Z,6.68
2018-01-03T09:35:44.197Z,6.73
2018-01-03T09:36:44.211Z,6.63
2018-01-03T09:37:44.220Z,6.83
2018-01-03T09:38:44.187Z,6.84
2018-01-03T09:39:44.187Z,6.80
2018-01-03T09:40:44.180Z,6.77
2018-01-03T09:41:44.177Z,6.91
2018-01-03T09:42:44.234Z,6.90
2018-01-03T09:43:44.213Z,6.84
2018-01-03T09:44:44.169Z,6.83
2018-01-03T09:45:44.161Z,6.73
2018-01-03T09:46:44.250Z,6.71
2018-01-03T09:47:44.156Z,6.66
2018-01-03T09:48:44.158Z,6.77
2018-01-03T09:49:44.159Z,6.72
2018-01-03T09:50:44.193Z,6.63
2018-01-03T09:51:44.143Z,6.63
2018-01-03T09:52:44.150Z,6.62
2018-01-03T09:53:44.138Z,6.79
2018-01-03T09:54:44.137Z,6.76
2018-01-03T09:55:44.144Z,6.69
2018-01-03T09:56:44.153Z,6.66
2018-01-03T09:57:44.161Z,6.72
2018-01-03T09:58:44.127Z,6.72
2018-01-03T09:59:44.120Z,6.81
2018-01-03T10:00:44.121Z,6.83
2018-01-03T10:01:46.807Z,6.80
2018-01-03T10:02:44.110Z,6.79
2018-01-03T10:03:44.110Z,6.76
2018-01-03T10:04:44.104Z,6.73
2018-01-03T10:05:44.100Z,6.71
2018-01-03T10:06:44.099Z,6.79
2018-01-03T10:07:44.100Z,6.79
2018-01-03T10:08:44.239Z,6.79
2018-01-03T10:09:44.089Z,6.80
2018-01-03T10:10:44.091Z,6.77
2018-01-03T10:11:44.083Z,6.73
2018-01-03T10:12:44.077Z,6.73
2018-01-03T10:13:44.077Z,6.69
2018-01-03T10:14:44.074Z,6.69
2018-01-03T10:15:44.080Z,6.79
2018-01-03T10:16:44.066Z,6.84
2018-01-03T10:17:44.062Z,6.84
2018-01-03T10:18:44.062Z,6.84
2018-01-03T10:19:44.059Z,6.90
2018-01-03T10:20:44.052Z,6.86
2018-01-03T10:21:44.050Z,6.84
2018-01-03T10:22:44.048Z,6.83
2018-01-03T10:23:44.041Z,6.81
2018-01-03T10:24:44.040Z,6.80
2018-01-03T10:25:44.059Z,6.77
2018-01-03T10:26:44.035Z,6.79
2018-01-03T10:27:44.035Z,6.76
2018-01-03T10:28:44.027Z,6.71
2018-01-03T10:29:44.047Z,6.73
2018-01-03T10:30:44.023Z,6.73
2018-01-03T10:31:44.017Z,6.66
2018-01-03T10:32:44.016Z,6.69
2018-01-03T10:33:44.010Z,6.65
2018-01-03T10:34:44.011Z,6.61
2018-01-03T10:35:44.008Z,6.53
2018-01-03T10:36:44.001Z,6.56
2018-01-03T10:37:44.027Z,6.59
2018-01-03T10:38:43.995Z,6.56
2018-01-03T10:39:43.991Z,6.40
2018-01-03T10:40:44.010Z,5.83
2018-01-03T10:41:43.998Z,5.30
2018-01-03T10:42:43.984Z,4.55
2018-01-03T10:43:44.005Z,4.29
2018-01-03T10:44:43.982Z,4.00
2018-01-03T10:45:44.033Z,3.72
2018-01-03T10:46:43.966Z,3.72
2018-01-03T10:47:43.967Z,3.71
2018-01-03T10:48:44.014Z,3.58
2018-01-03T10:49:43.995Z,3.50
2018-01-03T10:50:43.953Z,3.40
2018-01-03T10:51:43.967Z,3.42
2018-01-03T10:52:43.947Z,3.31
2018-01-03T10:53:43.940Z,3.34
2018-01-03T10:54:43.944Z,3.31
2018-01-03T10:55:43.933Z,3.28
2018-01-03T10:56:43.933Z,3.36
2018-01-03T10:57:43.921Z,3.39
2018-01-03T10:58:43.918Z,3.28
2018-01-03T10:59:43.935Z,3.31
2018-01-03T11:00:43.936Z,3.31
2018-01-03T11:01:43.903Z,3.36
2018-01-03T11:02:43.909Z,3.24
2018-01-03T11:03:43.918Z,3.36
2018-01-03T11:04:43.907Z,3.36
2018-01-03T11:05:43.923Z,3.44
2018-01-03T11:06:43.924Z,3.44
2018-01-03T11:07:43.925Z,3.43
2018-01-03T11:08:43.885Z,3.43
2018-01-03T11:09:43.883Z,3.57
2018-01-03T11:10:43.922Z,3.64
2018-01-03T11:11:43.879Z,3.61
2018-01-03T11:12:43.931Z,3.53
2018-01-03T11:13:43.905Z,3.43
2018-01-03T11:14:43.858Z,3.49
2018-01-03T11:15:43.835Z,3.40
2018-01-03T11:16:43.840Z,3.43
2018-01-03T11:17:43.827Z,3.53
2018-01-03T11:18:43.821Z,3.47
2018-01-03T11:19:43.817Z,3.46
2018-01-03T11:20:43.812Z,3.42
2018-01-03T11:21:43.812Z,3.46
2018-01-03T11:22:43.804Z,3.39
2018-01-03T11:23:43.799Z,3.46
2018-01-03T11:24:43.790Z,3.39
2018-01-03T11:25:43.794Z,3.20
2018-01-03T11:26:43.780Z,3.20
2018-01-03T11:27:43.776Z,3.18
2018-01-03T11:28:43.772Z,3.21
2018-01-03T11:29:43.768Z,3.28
2018-01-03T11:30:43.762Z,3.28
2018-01-03T11:31:43.758Z,3.25
2018-01-03T11:32:43.751Z,3.30
2018-01-03T11:33:43.747Z,3.30
2018-01-03T11:34:43.740Z,3.53
2018-01-03T11:35:43.736Z,3.58
2018-01-03T11:36:43.730Z,3.57
2018-01-03T11:37:43.725Z,3.58
2018-01-03T11:38:43.720Z,3.71
2018-01-03T11:39:43.713Z,3.65
2018-01-03T11:40:43.709Z,3.75
2018-01-03T11:41:43.705Z,3.75
2018-01-03T11:42:43.700Z,3.86
2018-01-03T11:43:43.695Z,3.76
2018-01-03T11:44:43.693Z,3.72
2018-01-03T11:45:43.684Z,3.67
2018-01-03T11:46:43.682Z,3.65
2018-01-03T11:47:43.673Z,3.60
2018-01-03T11:48:43.667Z,3.57
2018-01-03T11:49:43.662Z,3.58
2018-01-03T11:50:43.659Z,3.64
2018-01-03T11:51:43.652Z,3.62
2018-01-03T11:52:43.647Z,3.57
2018-01-03T11:53:43.646Z,3.61
2018-01-03T11:54:43.638Z,3.62
2018-01-03T11:55:43.632Z,3.50
2018-01-03T11:56:43.628Z,3.53
2018-01-03T11:57:43.625Z,3.42
2018-01-03T11:58:43.619Z,3.42
2018-01-03T11:59:43.611Z,3.40
2018-01-03T12:00:43.606Z,3.42
2018-01-03T12:01:43.602Z,3.57
2018-01-03T12:02:43.601Z,3.43
2018-01-03T12:03:43.590Z,3.52
2018-01-03T12:04:43.584Z,3.57
2018-01-03T12:05:43.584Z,3.54
2018-01-03T12:06:43.573Z,3.57
2018-01-03T12:07:43.585Z,3.65
2018-01-03T12:08:43.565Z,3.60
2018-01-03T12:09:43.559Z,3.58
2018-01-03T12:10:43.556Z,3.65
2018-01-03T12:11:43.553Z,3.57
2018-01-03T12:12:43.543Z,3.61
2018-01-03T12:13:43.540Z,3.61
2018-01-03T12:14:43.534Z,3.65
2018-01-03T12:15:43.542Z,3.62
2018-01-03T12:16:43.524Z,3.65
2018-01-03T12:17:43.517Z,3.70
2018-01-03T12:18:43.514Z,3.71
2018-01-03T12:19:43.507Z,3.80
2018-01-03T12:20:43.504Z,3.76
2018-01-03T12:21:43.499Z,3.78
2018-01-03T12:22:43.492Z,3.71
2018-01-03T12:23:43.485Z,3.78
2018-01-03T12:24:43.481Z,3.76
2018-01-03T12:25:43.476Z,3.83
2018-01-03T12:26:43.473Z,3.72
2018-01-03T12:27:43.466Z,3.76
2018-01-03T12:28:43.461Z,3.68
2018-01-03T12:29:43.456Z,3.65
2018-01-03T12:30:43.453Z,3.75
2018-01-03T12:31:43.445Z,3.76
2018-01-03T12:32:43.473Z,3.65
2018-01-03T12:33:43.437Z,3.72
2018-01-03T12:34:43.431Z,3.64
2018-01-03T12:35:43.425Z,3.53
2018-01-03T12:36:43.434Z,3.64
2018-01-03T12:37:43.416Z,3.61
2018-01-03T12:38:43.410Z,3.68
2018-01-03T12:39:43.402Z,3.72
2018-01-03T12:40:43.400Z,3.65
2018-01-03T12:41:43.397Z,3.75
2018-01-03T12:42:43.388Z,3.89
2018-01-03T12:43:43.383Z,3.82
2018-01-03T12:44:43.379Z,4.15
2018-01-03T12:45:43.376Z,4.18
2018-01-03T12:46:43.367Z,4.24
2018-01-03T12:47:43.361Z,4.24
2018-01-03T12:48:43.357Z,4.19
2018-01-03T12:49:43.406Z,4.14
2018-01-03T12:50:43.360Z,4.01
2018-01-03T12:51:43.340Z,4.00
2018-01-03T12:52:43.338Z,4.15
2018-01-03T12:53:43.332Z,4.14
2018-01-03T12:54:43.328Z,4.19
2018-01-03T12:55:43.319Z,4.04
2018-01-03T12:56:43.315Z,4.10
2018-01-03T12:57:43.310Z,4.18
2018-01-03T12:58:43.307Z,4.14
2018-01-03T12:59:43.317Z,4.15
2018-01-03T13:00:43.295Z,4.19
2018-01-03T13:01:43.290Z,4.33
2018-01-03T13:02:43.287Z,4.29
2018-01-03T13:03:43.280Z,4.26
2018-01-03T13:04:43.273Z,4.33
2018-01-03T13:05:43.270Z,4.22
2018-01-03T13:06:43.267Z,4.26
2018-01-03T13:07:43.260Z,4.28
2018-01-03T13:08:43.254Z,4.22
2018-01-03T13:09:43.249Z,4.12
2018-01-03T13:10:43.246Z,4.14
2018-01-03T13:11:43.250Z,4.18
2018-01-03T13:12:43.234Z,4.06
2018-01-03T13:13:43.229Z,4.03
2018-01-03T13:14:43.230Z,4.01
2018-01-03T13:15:43.226Z,4.08
2018-01-03T13:16:43.215Z,4.01
2018-01-03T13:17:43.211Z,4.00
2018-01-03T13:18:43.213Z,3.96
2018-01-03T13:19:43.201Z,4.06
2018-01-03T13:20:43.195Z,4.00
2018-01-03T13:21:43.191Z,3.94
2018-01-03T13:22:43.184Z,4.10
2018-01-03T13:23:43.180Z,4.10
2018-01-03T13:24:43.187Z,4.14
2018-01-03T13:25:43.171Z,4.21
2018-01-03T13:26:43.164Z,4.16
2018-01-03T13:27:43.162Z,4.18
2018-01-03T13:28:43.155Z,4.21
2018-01-03T13:29:43.149Z,4.15
2018-01-03T13:30:43.156Z,4.19